sensor_id;sensor_type;location;lat;lon;timestamp;P1;durP1;ratioP1;P2;durP2;ratioP2
16579;SDS011;8402;51.466;6.806;2023-04-04T00:00:39;4.20;;;2.03;;
16579;SDS011;8402;51.466;6.806;2023-04-04T00:03:12;4.33;;;2.30;;
16579;SDS011;8402;51.466;6.806;2023-04-04T00:05:43;5.83;;;2.10;;
16579;SDS011;8402;51.466;6.806;2023-04-04T00:08:13;7.00;;;2.10;;
16579;SDS011;8402;51.466;6.806;2023-04-04T00:10:43;4.10;;;2.03;;
16579;SDS011;8402;51.466;6.806;2023-04-04T00:13:13;4.77;;;1.97;;
16579;SDS011;8402;51.466;6.806;2023-04-04T00:15:43;7.03;;;1.80;;
16579;SDS011;8402;51.466;6.806;2023-04-04T00:18:16;8.00;;;2.10;;
16579;SDS011;8402;51.466;6.806;2023-04-04T00:20:47;12.33;;;2.50;;
16579;SDS011;8402;51.466;6.806;2023-04-04T00:23:17;6.57;;;2.30;;
16579;SDS011;8402;51.466;6.806;2023-04-04T00:25:50;4.27;;;2.20;;
16579;SDS011;8402;51.466;6.806;2023-04-04T00:28:20;4.97;;;2.07;;
16579;SDS011;8402;51.466;6.806;2023-04-04T00:30:50;14.27;;;2.37;;
16579;SDS011;8402;51.466;6.806;2023-04-04T00:33:23;3.07;;;1.60;;
16579;SDS011;8402;51.466;6.806;2023-04-04T00:35:53;6.47;;;2.30;;
16579;SDS011;8402;51.466;6.806;2023-04-04T00:38:23;8.13;;;2.57;;
16579;SDS011;8402;51.466;6.806;2023-04-04T00:40:55;6.40;;;1.80;;
16579;SDS011;8402;51.466;6.806;2023-04-04T00:43:26;13.60;;;2.40;;
16579;SDS011;8402;51.466;6.806;2023-04-04T00:45:56;3.50;;;2.00;;
16579;SDS011;8402;51.466;6.806;2023-04-04T00:48:29;4.73;;;2.07;;
16579;SDS011;8402;51.466;6.806;2023-04-04T00:51:00;8.40;;;2.50;;
16579;SDS011;8402;51.466;6.806;2023-04-04T00:53:29;8.50;;;2.50;;
16579;SDS011;8402;51.466;6.806;2023-04-04T00:56:00;7.43;;;2.43;;
16579;SDS011;8402;51.466;6.806;2023-04-04T00:58:30;7.83;;;2.50;;
16579;SDS011;8402;51.466;6.806;2023-04-04T01:01:00;8.23;;;2.47;;
16579;SDS011;8402;51.466;6.806;2023-04-04T01:03:33;6.80;;;2.40;;
16579;SDS011;8402;51.466;6.806;2023-04-04T01:06:05;4.80;;;2.03;;
16579;SDS011;8402;51.466;6.806;2023-04-04T01:08:36;10.37;;;2.37;;
16579;SDS011;8402;51.466;6.806;2023-04-04T01:11:08;6.10;;;2.30;;
16579;SDS011;8402;51.466;6.806;2023-04-04T01:13:38;8.87;;;2.90;;
16579;SDS011;8402;51.466;6.806;2023-04-04T01:16:09;5.07;;;2.53;;
16579;SDS011;8402;51.466;6.806;2023-04-04T01:18:41;6.93;;;2.70;;
16579;SDS011;8402;51.466;6.806;2023-04-04T01:21:12;6.43;;;2.53;;
16579;SDS011;8402;51.466;6.806;2023-04-04T01:23:48;7.73;;;2.63;;
16579;SDS011;8402;51.466;6.806;2023-04-04T01:26:28;6.27;;;2.80;;
16579;SDS011;8402;51.466;6.806;2023-04-04T01:28:58;5.43;;;2.50;;
16579;SDS011;8402;51.466;6.806;2023-04-04T01:31:30;10.93;;;2.60;;
16579;SDS011;8402;51.466;6.806;2023-04-04T01:34:07;4.33;;;2.50;;
16579;SDS011;8402;51.466;6.806;2023-04-04T01:36:46;9.13;;;2.97;;
16579;SDS011;8402;51.466;6.806;2023-04-04T01:39:22;4.23;;;2.20;;
16579;SDS011;8402;51.466;6.806;2023-04-04T01:41:58;5.40;;;2.50;;
16579;SDS011;8402;51.466;6.806;2023-04-04T01:44:31;6.60;;;2.50;;
16579;SDS011;8402;51.466;6.806;2023-04-04T01:47:04;12.00;;;3.13;;
16579;SDS011;8402;51.466;6.806;2023-04-04T01:49:35;7.77;;;2.73;;
16579;SDS011;8402;51.466;6.806;2023-04-04T01:52:05;6.50;;;2.87;;
16579;SDS011;8402;51.466;6.806;2023-04-04T01:54:35;8.20;;;2.77;;
16579;SDS011;8402;51.466;6.806;2023-04-04T01:57:08;8.13;;;2.83;;
16579;SDS011;8402;51.466;6.806;2023-04-04T01:59:38;9.70;;;2.77;;
16579;SDS011;8402;51.466;6.806;2023-04-04T02:02:08;6.97;;;2.80;;
16579;SDS011;8402;51.466;6.806;2023-04-04T02:04:38;9.63;;;3.27;;
16579;SDS011;8402;51.466;6.806;2023-04-04T02:07:08;6.03;;;2.77;;
16579;SDS011;8402;51.466;6.806;2023-04-04T02:09:38;9.40;;;3.00;;
16579;SDS011;8402;51.466;6.806;2023-04-04T02:12:11;5.50;;;2.60;;
16579;SDS011;8402;51.466;6.806;2023-04-04T02:14:41;8.57;;;3.00;;
16579;SDS011;8402;51.466;6.806;2023-04-04T02:17:12;10.23;;;2.90;;
16579;SDS011;8402;51.466;6.806;2023-04-04T02:19:42;7.57;;;2.90;;
16579;SDS011;8402;51.466;6.806;2023-04-04T02:22:12;6.80;;;2.83;;
16579;SDS011;8402;51.466;6.806;2023-04-04T02:24:42;7.53;;;2.97;;
16579;SDS011;8402;51.466;6.806;2023-04-04T02:27:14;6.77;;;3.33;;
16579;SDS011;8402;51.466;6.806;2023-04-04T02:29:44;5.17;;;2.40;;
16579;SDS011;8402;51.466;6.806;2023-04-04T02:32:14;7.50;;;3.30;;
16579;SDS011;8402;51.466;6.806;2023-04-04T02:34:44;6.73;;;2.83;;
16579;SDS011;8402;51.466;6.806;2023-04-04T02:37:14;4.77;;;2.80;;
16579;SDS011;8402;51.466;6.806;2023-04-04T02:39:44;6.10;;;2.80;;
16579;SDS011;8402;51.466;6.806;2023-04-04T02:42:17;5.57;;;2.60;;
16579;SDS011;8402;51.466;6.806;2023-04-04T02:44:47;5.60;;;2.83;;
16579;SDS011;8402;51.466;6.806;2023-04-04T02:47:17;4.57;;;2.40;;
16579;SDS011;8402;51.466;6.806;2023-04-04T02:49:48;5.97;;;2.73;;
16579;SDS011;8402;51.466;6.806;2023-04-04T02:52:19;8.67;;;3.30;;
16579;SDS011;8402;51.466;6.806;2023-04-04T02:54:49;9.00;;;2.97;;
16579;SDS011;8402;51.466;6.806;2023-04-04T02:57:22;8.27;;;2.87;;
16579;SDS011;8402;51.466;6.806;2023-04-04T02:59:52;6.23;;;3.17;;
16579;SDS011;8402;51.466;6.806;2023-04-04T03:02:22;6.83;;;3.07;;
16579;SDS011;8402;51.466;6.806;2023-04-04T03:04:53;9.23;;;3.10;;
16579;SDS011;8402;51.466;6.806;2023-04-04T03:07:23;7.57;;;3.30;;
16579;SDS011;8402;51.466;6.806;2023-04-04T03:09:53;10.43;;;3.43;;
16579;SDS011;8402;51.466;6.806;2023-04-04T03:12:30;6.13;;;2.93;;
16579;SDS011;8402;51.466;6.806;2023-04-04T03:15:00;11.97;;;3.70;;
16579;SDS011;8402;51.466;6.806;2023-04-04T03:17:30;6.93;;;3.00;;
16579;SDS011;8402;51.466;6.806;2023-04-04T03:20:00;11.20;;;3.20;;
16579;SDS011;8402;51.466;6.806;2023-04-04T03:22:30;11.73;;;3.20;;
16579;SDS011;8402;51.466;6.806;2023-04-04T03:25:00;6.77;;;3.10;;
16579;SDS011;8402;51.466;6.806;2023-04-04T03:27:33;7.80;;;3.10;;
16579;SDS011;8402;51.466;6.806;2023-04-04T03:30:06;10.77;;;3.60;;
16579;SDS011;8402;51.466;6.806;2023-04-04T03:32:37;5.57;;;2.90;;
16579;SDS011;8402;51.466;6.806;2023-04-04T03:35:07;8.03;;;3.47;;
16579;SDS011;8402;51.466;6.806;2023-04-04T03:37:38;9.30;;;3.20;;
16579;SDS011;8402;51.466;6.806;2023-04-04T03:40:09;9.70;;;3.33;;
16579;SDS011;8402;51.466;6.806;2023-04-04T03:42:42;13.00;;;3.63;;
16579;SDS011;8402;51.466;6.806;2023-04-04T03:45:12;8.67;;;3.67;;
16579;SDS011;8402;51.466;6.806;2023-04-04T03:47:42;10.90;;;3.37;;
16579;SDS011;8402;51.466;6.806;2023-04-04T03:50:12;6.80;;;3.83;;
16579;SDS011;8402;51.466;6.806;2023-04-04T03:52:42;10.03;;;3.40;;
16579;SDS011;8402;51.466;6.806;2023-04-04T03:55:13;8.97;;;3.40;;
16579;SDS011;8402;51.466;6.806;2023-04-04T03:57:45;8.60;;;3.43;;
16579;SDS011;8402;51.466;6.806;2023-04-04T04:00:15;7.20;;;3.07;;
16579;SDS011;8402;51.466;6.806;2023-04-04T04:02:46;9.03;;;3.40;;
16579;SDS011;8402;51.466;6.806;2023-04-04T04:05:16;9.03;;;3.47;;
16579;SDS011;8402;51.466;6.806;2023-04-04T04:07:46;8.30;;;3.30;;
16579;SDS011;8402;51.466;6.806;2023-04-04T04:10:16;6.73;;;2.87;;
16579;SDS011;8402;51.466;6.806;2023-04-04T04:12:48;8.83;;;3.67;;
16579;SDS011;8402;51.466;6.806;2023-04-04T04:15:18;6.00;;;3.30;;
16579;SDS011;8402;51.466;6.806;2023-04-04T04:17:48;5.20;;;2.73;;
16579;SDS011;8402;51.466;6.806;2023-04-04T04:20:19;9.03;;;3.27;;
16579;SDS011;8402;51.466;6.806;2023-04-04T04:22:49;12.67;;;3.77;;
16579;SDS011;8402;51.466;6.806;2023-04-04T04:25:19;10.77;;;3.23;;
16579;SDS011;8402;51.466;6.806;2023-04-04T04:27:53;6.07;;;3.07;;
16579;SDS011;8402;51.466;6.806;2023-04-04T04:30:24;10.20;;;3.60;;
16579;SDS011;8402;51.466;6.806;2023-04-04T04:32:54;7.27;;;3.17;;
16579;SDS011;8402;51.466;6.806;2023-04-04T04:35:24;9.30;;;3.67;;
16579;SDS011;8402;51.466;6.806;2023-04-04T04:37:54;11.77;;;4.23;;
16579;SDS011;8402;51.466;6.806;2023-04-04T04:40:24;6.37;;;3.20;;
16579;SDS011;8402;51.466;6.806;2023-04-04T04:42:57;12.20;;;3.97;;
16579;SDS011;8402;51.466;6.806;2023-04-04T04:45:28;7.80;;;3.57;;
16579;SDS011;8402;51.466;6.806;2023-04-04T04:47:58;6.53;;;3.10;;
16579;SDS011;8402;51.466;6.806;2023-04-04T04:50:28;14.03;;;3.90;;
16579;SDS011;8402;51.466;6.806;2023-04-04T04:53:00;8.87;;;3.80;;
16579;SDS011;8402;51.466;6.806;2023-04-04T04:55:30;10.43;;;4.10;;
16579;SDS011;8402;51.466;6.806;2023-04-04T04:58:03;12.67;;;3.47;;
16579;SDS011;8402;51.466;6.806;2023-04-04T05:00:33;14.40;;;3.47;;
16579;SDS011;8402;51.466;6.806;2023-04-04T05:03:03;11.30;;;3.67;;
16579;SDS011;8402;51.466;6.806;2023-04-04T05:05:35;13.13;;;3.90;;
16579;SDS011;8402;51.466;6.806;2023-04-04T05:08:05;15.47;;;3.70;;
16579;SDS011;8402;51.466;6.806;2023-04-04T05:10:35;15.70;;;4.10;;
16579;SDS011;8402;51.466;6.806;2023-04-04T05:13:08;12.60;;;3.47;;
16579;SDS011;8402;51.466;6.806;2023-04-04T05:15:39;8.57;;;3.40;;
16579;SDS011;8402;51.466;6.806;2023-04-04T05:18:09;9.23;;;3.63;;
16579;SDS011;8402;51.466;6.806;2023-04-04T05:20:39;7.40;;;3.60;;
16579;SDS011;8402;51.466;6.806;2023-04-04T05:23:12;8.37;;;3.73;;
16579;SDS011;8402;51.466;6.806;2023-04-04T05:25:42;8.57;;;3.50;;
16579;SDS011;8402;51.466;6.806;2023-04-04T05:28:15;8.10;;;3.50;;
16579;SDS011;8402;51.466;6.806;2023-04-04T05:30:45;9.87;;;3.93;;
16579;SDS011;8402;51.466;6.806;2023-04-04T05:33:15;7.57;;;3.50;;
16579;SDS011;8402;51.466;6.806;2023-04-04T05:35:45;14.40;;;4.30;;
16579;SDS011;8402;51.466;6.806;2023-04-04T05:38:15;10.47;;;3.80;;
16579;SDS011;8402;51.466;6.806;2023-04-04T05:40:45;6.80;;;3.63;;
16579;SDS011;8402;51.466;6.806;2023-04-04T05:43:18;11.30;;;3.67;;
16579;SDS011;8402;51.466;6.806;2023-04-04T05:45:48;10.97;;;3.70;;
16579;SDS011;8402;51.466;6.806;2023-04-04T05:48:18;9.87;;;3.47;;
16579;SDS011;8402;51.466;6.806;2023-04-04T05:50:48;11.13;;;4.17;;
16579;SDS011;8402;51.466;6.806;2023-04-04T05:53:18;14.93;;;4.13;;
16579;SDS011;8402;51.466;6.806;2023-04-04T05:55:50;5.97;;;3.00;;
16579;SDS011;8402;51.466;6.806;2023-04-04T05:58:23;8.23;;;3.87;;
16579;SDS011;8402;51.466;6.806;2023-04-04T06:00:55;8.30;;;3.67;;
16579;SDS011;8402;51.466;6.806;2023-04-04T06:03:25;15.20;;;3.70;;
16579;SDS011;8402;51.466;6.806;2023-04-04T06:05:56;9.40;;;4.10;;
16579;SDS011;8402;51.466;6.806;2023-04-04T06:08:26;18.03;;;4.10;;
16579;SDS011;8402;51.466;6.806;2023-04-04T06:11:05;10.03;;;4.47;;
16579;SDS011;8402;51.466;6.806;2023-04-04T06:13:38;8.67;;;4.33;;
16579;SDS011;8402;51.466;6.806;2023-04-04T06:16:08;9.67;;;4.10;;
16579;SDS011;8402;51.466;6.806;2023-04-04T06:18:38;13.97;;;3.93;;
16579;SDS011;8402;51.466;6.806;2023-04-04T06:21:08;14.70;;;4.93;;
16579;SDS011;8402;51.466;6.806;2023-04-04T06:23:38;12.33;;;4.67;;
16579;SDS011;8402;51.466;6.806;2023-04-04T06:26:09;12.00;;;4.57;;
16579;SDS011;8402;51.466;6.806;2023-04-04T06:28:48;11.03;;;4.77;;
16579;SDS011;8402;51.466;6.806;2023-04-04T06:31:18;14.93;;;4.57;;
16579;SDS011;8402;51.466;6.806;2023-04-04T06:33:48;14.93;;;4.27;;
16579;SDS011;8402;51.466;6.806;2023-04-04T06:36:18;11.27;;;4.90;;
16579;SDS011;8402;51.466;6.806;2023-04-04T06:38:48;11.10;;;4.83;;
16579;SDS011;8402;51.466;6.806;2023-04-04T06:41:19;10.40;;;4.10;;
16579;SDS011;8402;51.466;6.806;2023-04-04T06:43:52;14.60;;;5.13;;
16579;SDS011;8402;51.466;6.806;2023-04-04T06:46:22;9.07;;;4.70;;
16579;SDS011;8402;51.466;6.806;2023-04-04T06:48:52;10.87;;;4.50;;
16579;SDS011;8402;51.466;6.806;2023-04-04T06:51:23;9.60;;;4.23;;
16579;SDS011;8402;51.466;6.806;2023-04-04T06:53:54;12.90;;;4.07;;
16579;SDS011;8402;51.466;6.806;2023-04-04T06:56:24;10.43;;;4.30;;
16579;SDS011;8402;51.466;6.806;2023-04-04T06:58:59;10.30;;;4.43;;
16579;SDS011;8402;51.466;6.806;2023-04-04T07:01:32;9.77;;;4.57;;
16579;SDS011;8402;51.466;6.806;2023-04-04T07:04:03;8.80;;;4.30;;
16579;SDS011;8402;51.466;6.806;2023-04-04T07:06:33;12.33;;;5.00;;
16579;SDS011;8402;51.466;6.806;2023-04-04T07:09:03;13.07;;;4.63;;
16579;SDS011;8402;51.466;6.806;2023-04-04T07:11:47;7.50;;;4.10;;
16579;SDS011;8402;51.466;6.806;2023-04-04T07:14:23;8.80;;;4.23;;
16579;SDS011;8402;51.466;6.806;2023-04-04T07:16:52;8.83;;;4.27;;
16579;SDS011;8402;51.466;6.806;2023-04-04T07:19:23;12.87;;;4.27;;
16579;SDS011;8402;51.466;6.806;2023-04-04T07:21:54;9.83;;;4.43;;
16579;SDS011;8402;51.466;6.806;2023-04-04T07:24:25;6.60;;;4.03;;
16579;SDS011;8402;51.466;6.806;2023-04-04T07:26:55;8.57;;;4.03;;
16579;SDS011;8402;51.466;6.806;2023-04-04T07:29:28;10.03;;;3.90;;
16579;SDS011;8402;51.466;6.806;2023-04-04T07:31:58;10.30;;;3.70;;
16579;SDS011;8402;51.466;6.806;2023-04-04T07:34:28;9.60;;;4.13;;
16579;SDS011;8402;51.466;6.806;2023-04-04T07:37:00;5.63;;;3.03;;
16579;SDS011;8402;51.466;6.806;2023-04-04T07:39:30;7.77;;;3.70;;
16579;SDS011;8402;51.466;6.806;2023-04-04T07:42:00;6.73;;;3.60;;
16579;SDS011;8402;51.466;6.806;2023-04-04T07:44:32;6.73;;;3.13;;
16579;SDS011;8402;51.466;6.806;2023-04-04T07:47:02;7.13;;;3.70;;
16579;SDS011;8402;51.466;6.806;2023-04-04T07:49:35;9.33;;;3.17;;
16579;SDS011;8402;51.466;6.806;2023-04-04T07:52:05;7.07;;;3.17;;
16579;SDS011;8402;51.466;6.806;2023-04-04T07:54:36;6.57;;;3.20;;
16579;SDS011;8402;51.466;6.806;2023-04-04T07:57:06;7.90;;;3.93;;
16579;SDS011;8402;51.466;6.806;2023-04-04T07:59:38;10.00;;;4.10;;
16579;SDS011;8402;51.466;6.806;2023-04-04T08:02:08;10.53;;;3.30;;
16579;SDS011;8402;51.466;6.806;2023-04-04T08:04:38;7.77;;;3.17;;
16579;SDS011;8402;51.466;6.806;2023-04-04T08:07:08;7.57;;;2.43;;
16579;SDS011;8402;51.466;6.806;2023-04-04T08:09:38;6.40;;;2.60;;
16579;SDS011;8402;51.466;6.806;2023-04-04T08:12:09;8.27;;;3.53;;
16579;SDS011;8402;51.466;6.806;2023-04-04T08:14:41;5.20;;;2.60;;
16579;SDS011;8402;51.466;6.806;2023-04-04T08:17:12;3.33;;;1.70;;
16579;SDS011;8402;51.466;6.806;2023-04-04T08:19:44;3.40;;;1.77;;
16579;SDS011;8402;51.466;6.806;2023-04-04T08:22:14;8.27;;;2.00;;
16579;SDS011;8402;51.466;6.806;2023-04-04T08:24:47;8.60;;;1.90;;
16579;SDS011;8402;51.466;6.806;2023-04-04T08:27:17;6.40;;;1.77;;
16579;SDS011;8402;51.466;6.806;2023-04-04T08:29:50;5.20;;;1.87;;
16579;SDS011;8402;51.466;6.806;2023-04-04T08:32:20;5.27;;;2.10;;
16579;SDS011;8402;51.466;6.806;2023-04-04T08:34:50;2.70;;;1.70;;
16579;SDS011;8402;51.466;6.806;2023-04-04T08:37:20;3.63;;;1.90;;
16579;SDS011;8402;51.466;6.806;2023-04-04T08:39:50;9.53;;;2.00;;
16579;SDS011;8402;51.466;6.806;2023-04-04T08:42:20;4.73;;;1.80;;
16579;SDS011;8402;51.466;6.806;2023-04-04T08:44:56;5.70;;;2.27;;
16579;SDS011;8402;51.466;6.806;2023-04-04T08:47:28;5.63;;;2.20;;
16579;SDS011;8402;51.466;6.806;2023-04-04T08:50:03;4.80;;;1.97;;
16579;SDS011;8402;51.466;6.806;2023-04-04T08:52:38;4.23;;;2.10;;
16579;SDS011;8402;51.466;6.806;2023-04-04T08:55:10;5.83;;;2.03;;
16579;SDS011;8402;51.466;6.806;2023-04-04T08:57:41;9.33;;;2.20;;
16579;SDS011;8402;51.466;6.806;2023-04-04T09:00:15;8.33;;;2.30;;
16579;SDS011;8402;51.466;6.806;2023-04-04T09:02:49;4.00;;;1.83;;
16579;SDS011;8402;51.466;6.806;2023-04-04T09:05:24;2.70;;;1.73;;
16579;SDS011;8402;51.466;6.806;2023-04-04T09:07:54;5.90;;;1.67;;
16579;SDS011;8402;51.466;6.806;2023-04-04T09:10:24;7.90;;;2.50;;
16579;SDS011;8402;51.466;6.806;2023-04-04T09:12:55;7.87;;;2.13;;
16579;SDS011;8402;51.466;6.806;2023-04-04T09:15:45;5.13;;;2.40;;
16579;SDS011;8402;51.466;6.806;2023-04-04T09:18:16;3.97;;;1.90;;
16579;SDS011;8402;51.466;6.806;2023-04-04T09:20:47;8.30;;;1.83;;
16579;SDS011;8402;51.466;6.806;2023-04-04T09:23:18;4.40;;;1.90;;
16579;SDS011;8402;51.466;6.806;2023-04-04T09:25:50;4.83;;;2.27;;
16579;SDS011;8402;51.466;6.806;2023-04-04T09:28:30;6.07;;;2.07;;
16579;SDS011;8402;51.466;6.806;2023-04-04T09:31:03;3.33;;;1.60;;
16579;SDS011;8402;51.466;6.806;2023-04-04T09:33:37;3.67;;;1.50;;
16579;SDS011;8402;51.466;6.806;2023-04-04T09:36:07;6.30;;;2.00;;
16579;SDS011;8402;51.466;6.806;2023-04-04T09:38:43;8.10;;;2.17;;
16579;SDS011;8402;51.466;6.806;2023-04-04T09:41:14;4.53;;;1.73;;
16579;SDS011;8402;51.466;6.806;2023-04-04T09:43:47;3.93;;;1.80;;
16579;SDS011;8402;51.466;6.806;2023-04-04T09:46:20;3.33;;;1.70;;
16579;SDS011;8402;51.466;6.806;2023-04-04T09:48:51;7.13;;;2.20;;
16579;SDS011;8402;51.466;6.806;2023-04-04T09:51:22;4.23;;;1.90;;
16579;SDS011;8402;51.466;6.806;2023-04-04T09:53:52;2.23;;;1.50;;
16579;SDS011;8402;51.466;6.806;2023-04-04T09:56:23;6.27;;;2.10;;
16579;SDS011;8402;51.466;6.806;2023-04-04T09:58:53;3.63;;;2.10;;
16579;SDS011;8402;51.466;6.806;2023-04-04T10:01:33;3.73;;;1.83;;
16579;SDS011;8402;51.466;6.806;2023-04-04T10:04:03;9.57;;;1.90;;
16579;SDS011;8402;51.466;6.806;2023-04-04T10:06:35;3.60;;;1.50;;
16579;SDS011;8402;51.466;6.806;2023-04-04T10:09:06;3.47;;;1.63;;
16579;SDS011;8402;51.466;6.806;2023-04-04T10:11:36;3.63;;;1.63;;
16579;SDS011;8402;51.466;6.806;2023-04-04T10:14:07;5.40;;;1.93;;
16579;SDS011;8402;51.466;6.806;2023-04-04T10:16:42;3.30;;;1.73;;
16579;SDS011;8402;51.466;6.806;2023-04-04T10:19:14;3.63;;;1.73;;
16579;SDS011;8402;51.466;6.806;2023-04-04T10:21:45;2.97;;;1.43;;
16579;SDS011;8402;51.466;6.806;2023-04-04T10:24:16;5.73;;;2.17;;
16579;SDS011;8402;51.466;6.806;2023-04-04T10:26:47;4.13;;;1.73;;
16579;SDS011;8402;51.466;6.806;2023-04-04T10:29:18;3.13;;;1.73;;
16579;SDS011;8402;51.466;6.806;2023-04-04T10:31:52;6.90;;;1.67;;
16579;SDS011;8402;51.466;6.806;2023-04-04T10:34:29;5.23;;;1.80;;
16579;SDS011;8402;51.466;6.806;2023-04-04T10:37:05;3.53;;;1.57;;
16579;SDS011;8402;51.466;6.806;2023-04-04T10:39:39;3.80;;;1.73;;
16579;SDS011;8402;51.466;6.806;2023-04-04T10:42:14;3.03;;;1.63;;
16579;SDS011;8402;51.466;6.806;2023-04-04T10:44:47;3.23;;;1.60;;
16579;SDS011;8402;51.466;6.806;2023-04-04T10:47:22;4.37;;;1.80;;
16579;SDS011;8402;51.466;6.806;2023-04-04T10:49:55;4.30;;;1.70;;
16579;SDS011;8402;51.466;6.806;2023-04-04T10:52:26;5.73;;;1.80;;
16579;SDS011;8402;51.466;6.806;2023-04-04T10:55:00;2.83;;;1.70;;
16579;SDS011;8402;51.466;6.806;2023-04-04T10:57:33;3.60;;;1.70;;
16579;SDS011;8402;51.466;6.806;2023-04-04T11:00:08;3.63;;;1.70;;
16579;SDS011;8402;51.466;6.806;2023-04-04T11:02:46;5.27;;;1.77;;
16579;SDS011;8402;51.466;6.806;2023-04-04T11:05:23;4.87;;;1.70;;
16579;SDS011;8402;51.466;6.806;2023-04-04T11:07:55;4.27;;;1.90;;
16579;SDS011;8402;51.466;6.806;2023-04-04T11:10:34;3.30;;;1.97;;
16579;SDS011;8402;51.466;6.806;2023-04-04T11:13:07;4.40;;;2.00;;
16579;SDS011;8402;51.466;6.806;2023-04-04T11:15:51;4.00;;;1.90;;
16579;SDS011;8402;51.466;6.806;2023-04-04T11:21:16;4.07;;;2.03;;
16579;SDS011;8402;51.466;6.806;2023-04-04T11:26:44;2.83;;;1.70;;
16579;SDS011;8402;51.466;6.806;2023-04-04T11:29:22;3.70;;;1.50;;
16579;SDS011;8402;51.466;6.806;2023-04-04T11:32:40;3.67;;;1.80;;
16579;SDS011;8402;51.466;6.806;2023-04-04T11:35:32;3.60;;;1.77;;
16579;SDS011;8402;51.466;6.806;2023-04-04T11:38:02;3.77;;;1.77;;
16579;SDS011;8402;51.466;6.806;2023-04-04T11:40:33;4.37;;;2.13;;
16579;SDS011;8402;51.466;6.806;2023-04-04T11:43:08;3.57;;;1.80;;
16579;SDS011;8402;51.466;6.806;2023-04-04T11:45:43;3.60;;;2.10;;
16579;SDS011;8402;51.466;6.806;2023-04-04T11:48:14;9.50;;;2.30;;
16579;SDS011;8402;51.466;6.806;2023-04-04T11:50:48;4.50;;;1.77;;
16579;SDS011;8402;51.466;6.806;2023-04-04T11:53:18;6.43;;;1.80;;
16579;SDS011;8402;51.466;6.806;2023-04-04T11:55:48;8.23;;;2.00;;
16579;SDS011;8402;51.466;6.806;2023-04-04T11:58:22;7.43;;;1.97;;
16579;SDS011;8402;51.466;6.806;2023-04-04T12:00:52;2.87;;;1.57;;
16579;SDS011;8402;51.466;6.806;2023-04-04T12:03:22;3.10;;;1.80;;
16579;SDS011;8402;51.466;6.806;2023-04-04T12:05:55;4.30;;;1.93;;
16579;SDS011;8402;51.466;6.806;2023-04-04T12:08:25;3.27;;;1.73;;
16579;SDS011;8402;51.466;6.806;2023-04-04T12:10:58;3.07;;;1.90;;
16579;SDS011;8402;51.466;6.806;2023-04-04T12:13:32;7.13;;;2.07;;
16579;SDS011;8402;51.466;6.806;2023-04-04T12:16:02;5.17;;;1.73;;
16579;SDS011;8402;51.466;6.806;2023-04-04T12:18:33;4.57;;;2.10;;
16579;SDS011;8402;51.466;6.806;2023-04-04T12:21:06;6.90;;;1.90;;
16579;SDS011;8402;51.466;6.806;2023-04-04T12:23:36;3.87;;;1.90;;
16579;SDS011;8402;51.466;6.806;2023-04-04T12:26:06;5.67;;;2.23;;
16579;SDS011;8402;51.466;6.806;2023-04-04T12:28:36;3.60;;;1.90;;
16579;SDS011;8402;51.466;6.806;2023-04-04T12:31:07;3.37;;;1.67;;
16579;SDS011;8402;51.466;6.806;2023-04-04T12:33:39;9.30;;;2.00;;
16579;SDS011;8402;51.466;6.806;2023-04-04T12:36:12;5.37;;;2.03;;
16579;SDS011;8402;51.466;6.806;2023-04-04T12:38:54;4.07;;;1.87;;
16579;SDS011;8402;51.466;6.806;2023-04-04T12:41:26;5.07;;;2.03;;
16579;SDS011;8402;51.466;6.806;2023-04-04T12:44:00;3.23;;;2.00;;
16579;SDS011;8402;51.466;6.806;2023-04-04T12:46:34;5.23;;;1.90;;
16579;SDS011;8402;51.466;6.806;2023-04-04T12:49:05;3.33;;;1.80;;
16579;SDS011;8402;51.466;6.806;2023-04-04T12:51:39;6.10;;;1.80;;
16579;SDS011;8402;51.466;6.806;2023-04-04T12:54:22;5.27;;;1.73;;
16579;SDS011;8402;51.466;6.806;2023-04-04T12:56:54;4.80;;;1.67;;
16579;SDS011;8402;51.466;6.806;2023-04-04T12:59:27;5.97;;;2.07;;
16579;SDS011;8402;51.466;6.806;2023-04-04T13:01:59;3.13;;;1.80;;
16579;SDS011;8402;51.466;6.806;2023-04-04T13:04:29;4.83;;;1.87;;
16579;SDS011;8402;51.466;6.806;2023-04-04T13:07:03;6.57;;;2.43;;
16579;SDS011;8402;51.466;6.806;2023-04-04T13:09:33;5.67;;;2.10;;
16579;SDS011;8402;51.466;6.806;2023-04-04T13:12:03;4.07;;;2.17;;
16579;SDS011;8402;51.466;6.806;2023-04-04T13:17:40;5.87;;;1.90;;
16579;SDS011;8402;51.466;6.806;2023-04-04T13:20:12;6.57;;;2.03;;
16579;SDS011;8402;51.466;6.806;2023-04-04T13:22:45;5.03;;;1.80;;
16579;SDS011;8402;51.466;6.806;2023-04-04T13:25:15;3.63;;;1.80;;
16579;SDS011;8402;51.466;6.806;2023-04-04T13:27:45;5.60;;;2.07;;
16579;SDS011;8402;51.466;6.806;2023-04-04T13:30:16;4.63;;;2.20;;
16579;SDS011;8402;51.466;6.806;2023-04-04T13:32:46;3.27;;;2.13;;
16579;SDS011;8402;51.466;6.806;2023-04-04T13:35:16;3.43;;;2.07;;
16579;SDS011;8402;51.466;6.806;2023-04-04T13:37:49;8.53;;;2.40;;
16579;SDS011;8402;51.466;6.806;2023-04-04T13:40:19;3.93;;;2.13;;
16579;SDS011;8402;51.466;6.806;2023-04-04T13:42:49;6.53;;;2.33;;
16579;SDS011;8402;51.466;6.806;2023-04-04T13:45:19;4.40;;;2.40;;
16579;SDS011;8402;51.466;6.806;2023-04-04T13:47:49;5.83;;;2.30;;
16579;SDS011;8402;51.466;6.806;2023-04-04T13:50:19;5.87;;;2.70;;
16579;SDS011;8402;51.466;6.806;2023-04-04T13:52:52;5.07;;;2.50;;
16579;SDS011;8402;51.466;6.806;2023-04-04T13:55:22;3.60;;;2.00;;
16579;SDS011;8402;51.466;6.806;2023-04-04T13:57:52;11.57;;;2.60;;
16579;SDS011;8402;51.466;6.806;2023-04-04T14:00:22;3.90;;;2.10;;
16579;SDS011;8402;51.466;6.806;2023-04-04T14:02:54;4.30;;;2.03;;
16579;SDS011;8402;51.466;6.806;2023-04-04T14:05:24;5.20;;;2.03;;
16579;SDS011;8402;51.466;6.806;2023-04-04T14:07:57;5.33;;;2.00;;
16579;SDS011;8402;51.466;6.806;2023-04-04T14:10:27;7.03;;;2.17;;
16579;SDS011;8402;51.466;6.806;2023-04-04T14:12:58;7.23;;;2.47;;
16579;SDS011;8402;51.466;6.806;2023-04-04T14:15:28;5.20;;;1.93;;
16579;SDS011;8402;51.466;6.806;2023-04-04T14:17:58;5.70;;;2.13;;
16579;SDS011;8402;51.466;6.806;2023-04-04T14:20:28;7.23;;;2.40;;
16579;SDS011;8402;51.466;6.806;2023-04-04T14:23:03;3.17;;;1.93;;
16579;SDS011;8402;51.466;6.806;2023-04-04T14:25:37;4.00;;;2.13;;
16579;SDS011;8402;51.466;6.806;2023-04-04T14:28:08;5.77;;;2.30;;
16579;SDS011;8402;51.466;6.806;2023-04-04T14:30:38;5.27;;;2.53;;
16579;SDS011;8402;51.466;6.806;2023-04-04T14:33:08;4.17;;;2.20;;
16579;SDS011;8402;51.466;6.806;2023-04-04T14:35:38;3.90;;;2.40;;
16579;SDS011;8402;51.466;6.806;2023-04-04T14:38:11;4.70;;;2.17;;
16579;SDS011;8402;51.466;6.806;2023-04-04T14:40:41;6.23;;;2.57;;
16579;SDS011;8402;51.466;6.806;2023-04-04T14:43:11;4.97;;;2.33;;
16579;SDS011;8402;51.466;6.806;2023-04-04T14:45:44;4.20;;;2.50;;
16579;SDS011;8402;51.466;6.806;2023-04-04T14:48:14;4.67;;;2.60;;
16579;SDS011;8402;51.466;6.806;2023-04-04T14:50:45;5.27;;;2.43;;
16579;SDS011;8402;51.466;6.806;2023-04-04T14:53:17;5.37;;;2.50;;
16579;SDS011;8402;51.466;6.806;2023-04-04T14:55:51;6.27;;;2.40;;
16579;SDS011;8402;51.466;6.806;2023-04-04T14:58:21;3.80;;;2.13;;
16579;SDS011;8402;51.466;6.806;2023-04-04T15:00:53;6.13;;;2.50;;
16579;SDS011;8402;51.466;6.806;2023-04-04T15:03:24;5.80;;;2.30;;
16579;SDS011;8402;51.466;6.806;2023-04-04T15:05:54;5.57;;;2.40;;
16579;SDS011;8402;51.466;6.806;2023-04-04T15:08:27;5.80;;;2.23;;
16579;SDS011;8402;51.466;6.806;2023-04-04T15:10:58;5.43;;;2.50;;
16579;SDS011;8402;51.466;6.806;2023-04-04T15:13:29;6.17;;;2.80;;
16579;SDS011;8402;51.466;6.806;2023-04-04T15:15:59;4.47;;;2.57;;
16579;SDS011;8402;51.466;6.806;2023-04-04T15:18:29;6.80;;;2.67;;
16579;SDS011;8402;51.466;6.806;2023-04-04T15:20:59;6.50;;;2.40;;
16579;SDS011;8402;51.466;6.806;2023-04-04T15:23:32;4.10;;;2.47;;
16579;SDS011;8402;51.466;6.806;2023-04-04T15:26:02;4.83;;;2.70;;
16579;SDS011;8402;51.466;6.806;2023-04-04T15:28:32;3.90;;;2.23;;
16579;SDS011;8402;51.466;6.806;2023-04-04T15:31:02;3.53;;;2.10;;
16579;SDS011;8402;51.466;6.806;2023-04-04T15:33:33;3.73;;;2.47;;
16579;SDS011;8402;51.466;6.806;2023-04-04T15:36:04;6.33;;;2.60;;